Time;durP1;ratioP1;P1;durP2;ratioP2;P2;SDS_P1;SDS_P2;PMS_P1;PMS_P2;Temp;Humidity;BMP_temperature;BMP_pressure;BME280_temperature;BME280_humidity;BME280_pressure;Samples;Min_cycle;Max_cycle;Signal;HPM_P1;HPM_P2
2022/02/12 00:01:08;;;;;;;;;25.50;21.75;;;;;4.96;65.11;102375.13;4923522;28;45383;-74
2022/02/12 00:03:33;;;;;;;;;22.25;22.25;;;;;4.94;64.90;102384.66;4923288;28;45236;-63
2022/02/12 00:06:00;;;;;;;;;21.50;20.50;;;;;4.94;64.87;102383.78;4923784;28;47587;-62
2022/02/12 00:08:25;;;;;;;;;40.50;29.00;;;;;4.92;64.92;102380.28;4926981;28;45382;-66
2022/02/12 00:10:51;;;;;;;;;32.00;25.75;;;;;4.92;65.29;102385.50;4923605;28;45442;-64
2022/02/12 00:13:16;;;;;;;;;24.00;21.50;;;;;4.89;64.83;102378.53;4925935;28;45329;-75
2022/02/12 00:15:42;;;;;;;;;27.75;26.50;;;;;4.88;64.91;102375.88;4928258;28;45351;-72
2022/02/12 00:18:08;;;;;;;;;35.75;30.75;;;;;4.83;65.04;102365.41;4921541;28;45391;-63
2022/02/12 00:20:34;;;;;;;;;33.25;30.50;;;;;4.82;65.37;102369.72;4921570;28;45465;-64
2022/02/12 00:23:00;;;;;;;;;29.00;24.50;;;;;4.80;65.58;102362.75;4919957;28;45447;-68
2022/02/12 00:25:25;;;;;;;;;29.75;24.25;;;;;4.61;65.98;102332.97;4920959;28;45325;-68
2022/02/12 00:27:51;;;;;;;;;35.25;31.50;;;;;4.74;66.45;102355.72;4921010;28;45383;-66
2022/02/12 00:30:16;;;;;;;;;31.75;24.00;;;;;4.75;65.80;102360.09;4921035;28;45437;-64
2022/02/12 00:32:41;;;;;;;;;32.00;25.00;;;;;4.79;65.94;102367.09;4922732;28;45549;-67
2022/02/12 00:35:07;;;;;;;;;26.25;21.75;;;;;4.76;66.14;102367.06;4921469;28;45617;-65
2022/02/12 00:37:32;;;;;;;;;24.75;20.50;;;;;4.75;66.14;102353.97;4921524;28;45298;-62
2022/02/12 00:39:59;;;;;;;;;24.75;23.75;;;;;4.74;66.25;102349.63;4923659;28;45264;-68
2022/02/12 00:42:25;;;;;;;;;37.00;29.00;;;;;4.74;66.28;102350.50;4924874;28;45482;-64
2022/02/12 00:44:52;;;;;;;;;27.50;23.75;;;;;4.75;66.04;102353.97;4929357;28;46043;-63
2022/02/12 00:47:18;;;;;;;;;32.00;28.00;;;;;4.72;66.23;102343.50;4926297;28;44807;-64
2022/02/12 00:49:43;;;;;;;;;26.50;25.50;;;;;4.72;66.57;102349.63;4928743;28;45266;-64
2022/02/12 00:52:09;;;;;;;;;34.75;29.25;;;;;4.65;65.89;102335.63;4926291;28;45370;-66
2022/02/12 00:54:34;;;;;;;;;27.50;26.00;;;;;4.72;66.08;102349.63;4923226;28;45549;-64
2022/02/12 00:57:00;;;;;;;;;33.25;26.75;;;;;4.72;66.52;102361.75;4926418;28;45487;-68
2022/02/12 00:59:26;;;;;;;;;33.00;31.00;;;;;4.70;66.75;102350.44;4929249;28;45383;-63
2022/02/12 01:01:52;;;;;;;;;34.00;30.75;;;;;4.67;66.69;102346.06;4922424;28;45280;-69
2022/02/12 01:04:17;;;;;;;;;36.00;32.00;;;;;4.65;66.71;102340.84;4920760;28;45980;-69
2022/02/12 01:06:42;;;;;;;;;32.50;29.50;;;;;4.63;66.63;102337.31;4921932;28;45343;-70
2022/02/12 01:09:08;;;;;;;;;32.00;31.50;;;;;4.66;67.08;102341.72;4925355;28;45267;-69
2022/02/12 01:11:33;;;;;;;;;32.00;29.50;;;;;4.65;67.16;102333.00;4930893;28;44921;-62
2022/02/12 01:13:58;;;;;;;;;27.00;26.00;;;;;4.42;66.85;102288.44;4921315;28;45295;-67
2022/02/12 01:16:23;;;;;;;;;31.50;25.50;;;;;4.61;66.59;102328.63;4922230;28;45250;-65
2022/02/12 01:18:49;;;;;;;;;37.00;28.50;;;;;4.58;66.79;102315.53;4922008;28;45298;-68
2022/02/12 01:21:14;;;;;;;;;31.50;26.25;;;;;4.56;66.87;102312.03;4921561;28;45168;-66
2022/02/12 01:23:40;;;;;;;;;34.00;28.25;;;;;4.55;66.87;102312.03;4921389;28;46103;-62
2022/02/12 01:26:05;;;;;;;;;30.50;23.75;;;;;4.51;66.94;102309.41;4922042;28;45217;-65
2022/02/12 01:28:31;;;;;;;;;31.75;27.50;;;;;4.51;66.97;102309.41;4922623;28;45217;-67
2022/02/12 01:30:56;;;;;;;;;32.75;29.75;;;;;4.48;66.94;102301.53;4922581;28;45552;-66
2022/02/12 01:33:21;;;;;;;;;28.75;26.00;;;;;4.49;66.57;102298.06;4921985;28;46160;-68
2022/02/12 01:35:47;;;;;;;;;35.50;28.00;;;;;4.47;66.80;102291.06;4921614;28;46020;-69
2022/02/12 01:38:12;;;;;;;;;42.50;36.00;;;;;4.48;67.10;102298.03;4921968;28;45915;-68
2022/02/12 01:40:38;;;;;;;;;28.50;27.50;;;;;4.15;67.17;102250.72;4922388;28;45377;-69
2022/02/12 01:43:07;;;;;;;;;35.00;27.00;;;;;4.44;67.14;102294.53;4923993;28;46583;-71
2022/02/12 01:45:33;;;;;;;;;28.25;24.00;;;;;4.44;66.85;102294.53;4922775;28;45263;-68
2022/02/12 01:47:58;;;;;;;;;26.00;25.00;;;;;4.40;66.82;102290.13;4921847;28;45278;-67
2022/02/12 01:50:25;;;;;;;;;24.75;20.00;;;;;4.42;66.81;102290.16;4919475;28;45578;-64
2022/02/12 01:52:51;;;;;;;;;25.00;23.00;;;;;4.40;66.62;102295.34;4920745;28;45603;-70
2022/02/12 01:55:17;;;;;;;;;31.50;25.75;;;;;4.38;67.26;102286.63;4920962;28;45350;-68
2022/02/12 01:57:42;;;;;;;;;21.50;19.50;;;;;4.37;66.82;102288.34;4923011;28;45429;-69
2022/02/12 02:00:10;;;;;;;;;29.00;24.00;;;;;4.36;66.69;102289.22;4923422;28;45549;-71
2022/02/12 02:02:39;;;;;;;;;23.00;21.00;;;;;4.05;66.81;102235.81;4925621;28;46124;-69
2022/02/12 02:05:07;;;;;;;;;25.75;22.25;;;;;4.36;66.56;102277.94;4926917;28;45445;-68
2022/02/12 02:07:33;;;;;;;;;20.00;19.00;;;;;4.38;66.55;102276.22;4921603;28;45279;-69
2022/02/12 02:09:58;;;;;;;;;24.25;21.25;;;;;4.37;66.89;102261.44;4924236;28;45303;-63
2022/02/12 02:12:24;;;;;;;;;26.00;20.50;;;;;4.36;67.08;102260.56;4924238;28;45225;-64
2022/02/12 02:14:49;;;;;;;;;19.75;18.25;;;;;4.34;66.48;102258.78;4926002;28;45456;-62
2022/02/12 02:17:14;;;;;;;;;20.75;18.75;;;;;4.32;66.73;102240.53;4920077;28;45385;-62
2022/02/12 02:19:40;;;;;;;;;22.25;20.00;;;;;4.34;66.46;102245.78;4921121;28;45333;-62
2022/02/12 02:22:07;;;;;;;;;23.50;23.00;;;;;4.17;66.47;102209.94;4920470;28;46159;-62
2022/02/12 02:24:32;;;;;;;;;28.25;23.25;;;;;4.33;66.89;102231.84;4921530;28;45257;-68
2022/02/12 02:27:06;;;;;;;;;24.75;20.50;;;;;4.33;66.74;102223.19;4923410;28;45334;-64
2022/02/12 02:29:32;;;;;;;;;24.50;21.00;;;;;4.33;66.34;102228.38;4922367;28;45453;-61
2022/02/12 02:31:57;;;;;;;;;20.75;19.00;;;;;4.24;66.92;102213.50;4929352;28;46402;-72
2022/02/12 02:34:22;;;;;;;;;22.50;20.75;;;;;4.31;66.71;102222.28;4925141;28;45319;-67
2022/02/12 02:36:51;;;;;;;;;27.50;22.25;;;;;4.28;66.65;102217.03;4920616;28;45369;-71
2022/02/12 02:39:17;;;;;;;;;23.50;20.75;;;;;4.28;66.69;102217.03;4921210;28;45472;-76
2022/02/12 02:41:42;;;;;;;;;24.25;23.00;;;;;4.27;66.91;102220.50;4919917;28;45470;-62
2022/02/12 02:44:08;;;;;;;;;29.75;23.75;;;;;4.26;66.67;102211.78;4919303;28;45379;-71
2022/02/12 02:46:33;;;;;;;;;27.75;23.75;;;;;4.23;67.04;102210.00;4920124;28;45355;-66
2022/02/12 02:48:59;;;;;;;;;28.75;25.75;;;;;4.21;67.05;102209.13;4922737;28;45572;-75
2022/02/12 02:56:51;;;;;;;;;33.75;28.50;;;;;4.15;67.43;102200.38;4923001;28;45366;-72
2022/02/12 02:59:17;;;;;;;;;29.75;22.00;;;;;4.08;67.67;102188.97;4925759;28;45256;-70
2022/02/12 03:01:42;;;;;;;;;22.50;20.75;;;;;4.08;67.17;102194.19;4925792;28;46598;-70
2022/02/12 03:04:08;;;;;;;;;25.75;24.25;;;;;4.03;67.18;102186.34;4925298;28;45412;-76
2022/02/12 03:06:33;;;;;;;;;24.50;20.50;;;;;3.97;67.39;102181.06;4928085;28;45323;-62
2022/02/12 03:08:59;;;;;;;;;23.50;21.00;;;;;3.99;67.08;102186.25;4924729;28;45283;-67
2022/02/12 03:11:24;;;;;;;;;24.00;19.00;;;;;3.90;66.96;102176.63;4925780;28;45427;-68
2022/02/12 03:13:55;;;;;;;;;17.75;17.75;;;;;3.89;67.69;102174.88;4924374;28;46637;-67
2022/02/12 03:16:20;;;;;;;;;21.50;18.75;;;;;3.84;67.50;102166.97;4925760;28;45385;-65
2022/02/12 03:18:48;;;;;;;;;28.00;26.00;;;;;3.80;67.96;102160.00;4924921;28;45603;-64
2022/02/12 03:21:14;;;;;;;;;23.50;21.25;;;;;3.73;67.45;102152.94;4924053;28;45408;-67
2022/02/12 03:23:41;;;;;;;;;26.75;18.75;;;;;3.72;68.33;102162.50;4924672;28;45302;-65
2022/02/12 03:26:07;;;;;;;;;24.00;20.50;;;;;3.67;67.70;102152.88;4923474;28;45280;-65
2022/02/12 03:28:33;;;;;;;;;23.75;20.25;;;;;3.62;68.02;102143.28;4923347;28;45411;-64
2022/02/12 03:30:59;;;;;;;;;26.75;24.75;;;;;3.60;68.06;102144.09;4924711;28;45366;-68
2022/02/12 03:33:24;;;;;;;;;22.50;19.75;;;;;3.59;68.64;102153.63;4927143;28;45407;-74
2022/02/12 03:35:50;;;;;;;;;18.50;16.50;;;;;3.55;68.59;102143.16;4923663;28;45296;-67
2022/02/12 03:38:19;;;;;;;;;18.50;16.25;;;;;3.54;69.22;102142.28;4925813;28;45335;-69
2022/02/12 03:40:50;;;;;;;;;22.50;19.00;;;;;3.51;68.45;102143.09;4925239;28;46139;-66
2022/02/12 03:43:16;;;;;;;;;18.00;16.50;;;;;3.51;68.77;102137.91;4926640;28;45178;-70
2022/02/12 03:45:43;;;;;;;;;32.75;26.25;;;;;3.50;68.85;102132.69;4928441;28;45481;-64
2022/02/12 03:48:10;;;;;;;;;22.00;19.75;;;;;3.50;68.20;102132.69;4927821;28;45315;-66
2022/02/12 03:50:36;;;;;;;;;22.75;21.75;;;;;3.48;68.93;102132.66;4929583;28;45401;-67
2022/02/12 03:53:05;;;;;;;;;18.25;14.50;;;;;3.44;68.14;102123.06;4928656;28;45293;-69
2022/02/12 03:55:36;;;;;;;;;19.00;16.25;;;;;3.39;68.28;102110.84;4924427;28;45219;-66
2022/02/12 03:58:02;;;;;;;;;29.50;18.25;;;;;3.37;69.21;102116.03;4924815;28;45228;-66
2022/02/12 04:00:28;;;;;;;;;19.00;17.25;;;;;3.40;68.82;102113.47;4925723;28;45505;-62
2022/02/12 04:02:53;;;;;;;;;21.25;19.00;;;;;3.40;69.43;102118.66;4923666;28;45244;-61
2022/02/12 04:05:18;;;;;;;;;17.50;16.25;;;;;3.39;69.40;102108.25;4923593;28;45299;-64
2022/02/12 04:07:44;;;;;;;;;18.50;15.75;;;;;3.32;68.87;102095.16;4926445;28;45604;-62
2022/02/12 04:10:12;;;;;;;;;22.25;19.25;;;;;3.35;68.97;102103.00;4923245;28;45886;-66
2022/02/12 04:12:38;;;;;;;;;5.00;3.25;;;;;3.35;69.61;102099.50;4921088;28;45309;-62
2022/02/12 04:15:04;;;;;;;;;17.50;16.50;;;;;3.33;69.88;102091.72;4921562;28;45402;-64
2022/02/12 04:17:34;;;;;;;;;21.00;15.00;;;;;3.05;69.38;102047.06;4921764;28;45326;-64
2022/02/12 04:20:02;;;;;;;;;24.00;17.00;;;;;3.31;69.37;102090.81;4920972;28;45274;-62
2022/02/12 04:22:29;;;;;;;;;20.50;14.25;;;;;3.33;69.74;102099.50;4920884;28;45323;-62
2022/02/12 04:24:54;;;;;;;;;20.25;14.50;;;;;3.33;69.39;102099.50;4921788;28;45406;-64
2022/02/12 04:27:19;;;;;;;;;18.75;18.75;;;;;3.32;69.90;102083.88;4921680;28;45567;-62
2022/02/12 04:29:45;;;;;;;;;19.00;15.00;;;;;3.13;69.54;102052.41;4921838;28;46210;-62
2022/02/12 04:32:10;;;;;;;;;18.00;14.75;;;;;3.30;69.96;102077.78;4925012;28;45209;-65
2022/02/12 04:34:35;;;;;;;;;15.25;13.50;;;;;3.33;69.76;102080.41;4943603;28;45406;-62
2022/02/12 04:37:01;;;;;;;;;15.50;14.25;;;;;2.98;69.71;102011.44;4921594;28;45470;-62
2022/02/12 04:39:26;;;;;;;;;14.25;11.00;;;;;3.31;69.90;102071.72;4923137;28;45216;-63
2022/02/12 04:41:52;;;;;;;;;16.00;12.50;;;;;3.30;70.05;102069.97;4921254;28;45255;-63
2022/02/12 04:44:17;;;;;;;;;10.75;10.75;;;;;3.28;69.68;102069.06;4920922;28;45268;-63
2022/02/12 04:46:42;;;;;;;;;20.50;15.00;;;;;3.28;70.24;102069.06;4920864;28;45273;-63
2022/02/12 04:49:08;;;;;;;;;16.75;11.25;;;;;3.27;69.71;102067.31;4920936;28;45466;-66
2022/02/12 04:51:33;;;;;;;;;15.50;12.00;;;;;3.26;69.53;102075.97;4922076;28;45243;-63
2022/02/12 04:53:59;;;;;;;;;10.75;9.75;;;;;3.24;69.26;102075.97;4923536;28;45499;-63
2022/02/12 04:56:25;;;;;;;;;12.75;11.00;;;;;3.21;70.07;102073.31;4927717;28;45166;-64
2022/02/12 04:58:51;;;;;;;;;15.00;10.00;;;;;3.21;69.45;102073.31;4924632;28;45196;-62
2022/02/12 05:01:20;;;;;;;;;14.50;9.00;;;;;3.22;68.87;102075.94;4923315;28;45349;-66
2022/02/12 05:03:50;;;;;;;;;11.00;9.50;;;;;3.20;69.28;102069.84;4924569;28;45323;-66
2022/02/12 05:06:17;;;;;;;;;17.50;12.00;;;;;3.11;68.84;102058.41;4922375;28;45503;-64
2022/02/12 05:08:43;;;;;;;;;14.50;10.50;;;;;3.18;69.64;102068.94;4920818;28;46107;-63
2022/02/12 05:11:08;;;;;;;;;11.25;8.00;;;;;3.18;69.12;102068.06;4922737;28;45441;-63
2022/02/12 05:13:34;;;;;;;;;9.25;8.00;;;;;3.14;68.90;102059.34;4925117;28;45423;-69
2022/02/12 05:15:59;;;;;;;;;10.25;8.75;;;;;3.19;68.87;102065.50;4921082;28;45366;-69
2022/02/12 05:18:24;;;;;;;;;14.25;10.00;;;;;3.18;69.33;102065.44;4920780;28;46213;-71
2022/02/12 05:20:50;;;;;;;;;12.00;11.00;;;;;3.17;69.67;102053.31;4923925;28;45334;-65
2022/02/12 05:23:15;;;;;;;;;15.00;9.25;;;;;3.21;68.82;102058.59;4922683;28;45459;-65
2022/02/12 05:25:41;;;;;;;;;10.00;9.00;;;;;3.19;69.14;102055.09;4927321;28;45562;-67
2022/02/12 05:28:06;;;;;;;;;12.00;9.00;;;;;3.15;69.70;102049.81;4922929;28;45435;-71
2022/02/12 05:30:33;;;;;;;;;11.25;9.75;;;;;3.18;69.61;102052.44;4921555;28;45307;-69
2022/02/12 05:32:59;;;;;;;;;12.00;10.75;;;;;3.15;69.20;102047.22;4921367;28;45340;-65
2022/02/12 05:35:24;;;;;;;;;16.00;15.25;;;;;3.14;69.38;102037.66;4920516;28;45371;-65
2022/02/12 05:37:49;;;;;;;;;12.25;11.00;;;;;3.15;69.80;102036.81;4920256;28;46459;-70
2022/02/12 05:40:15;;;;;;;;;15.00;12.75;;;;;3.14;70.01;102033.34;4920669;28;45209;-64
2022/02/12 05:42:40;;;;;;;;;11.75;11.50;;;;;3.15;69.51;102031.59;4921890;28;45212;-64
2022/02/12 05:45:07;;;;;;;;;11.75;10.00;;;;;3.14;69.54;102035.06;4922798;28;45245;-68
2022/02/12 05:47:37;;;;;;;;;17.75;12.25;;;;;3.12;69.62;102031.56;4923691;28;46385;-65
2022/02/12 05:50:03;;;;;;;;;13.50;11.75;;;;;3.09;69.45;102024.59;4924465;28;45490;-66
2022/02/12 05:52:28;;;;;;;;;15.00;10.25;;;;;3.05;69.55;102021.06;4922592;28;45242;-63
2022/02/12 05:54:53;;;;;;;;;10.50;10.00;;;;;3.07;68.89;102018.50;4923436;28;45474;-65
2022/02/12 05:57:19;;;;;;;;;18.50;14.75;;;;;3.06;69.95;102014.16;4921540;28;45351;-63
2022/02/12 05:59:44;;;;;;;;;12.25;9.50;;;;;2.96;69.93;101994.94;4921732;28;45214;-65
2022/02/12 06:02:10;;;;;;;;;15.50;12.00;;;;;3.04;69.39;102015.88;4922241;28;45212;-62
2022/02/12 06:04:35;;;;;;;;;14.50;13.50;;;;;3.01;70.08;102011.50;4922504;28;45567;-63
2022/02/12 06:07:01;;;;;;;;;13.50;11.50;;;;;2.97;69.26;101999.28;4922017;28;45236;-63
2022/02/12 06:09:26;;;;;;;;;11.75;10.75;;;;;2.98;69.86;102008.84;4921567;28;45442;-63
2022/02/12 06:11:52;;;;;;;;;15.75;12.50;;;;;2.98;69.65;102003.63;4921563;28;45325;-63
2022/02/12 06:14:17;;;;;;;;;17.75;11.00;;;;;2.92;69.20;101996.66;4922449;28;45144;-65
2022/02/12 06:16:42;;;;;;;;;10.50;10.50;;;;;2.90;69.94;101994.88;4921896;28;45411;-66
2022/02/12 06:19:08;;;;;;;;;13.50;11.50;;;;;2.89;69.26;102000.91;4919884;28;45343;-63
2022/02/12 06:21:33;;;;;;;;;18.00;14.00;;;;;2.87;70.35;101990.50;4920656;28;45323;-61
2022/02/12 06:23:59;;;;;;;;;14.75;11.50;;;;;2.88;69.34;101987.06;4920130;28;45295;-61
2022/02/12 06:26:24;;;;;;;;;14.50;10.25;;;;;2.90;70.68;102000.06;4919128;28;46127;-67
2022/02/12 06:28:50;;;;;;;;;14.00;12.50;;;;;2.55;70.20;101931.13;4918942;28;45340;-62
2022/02/12 06:31:15;;;;;;;;;10.00;8.00;;;;;2.85;69.48;101971.41;4924545;28;45392;-63
2022/02/12 06:33:40;;;;;;;;;15.00;12.25;;;;;2.95;70.36;101995.81;4919848;28;45294;-66
2022/02/12 06:36:06;;;;;;;;;13.00;11.00;;;;;2.76;69.41;101963.50;4919158;28;45528;-62
2022/02/12 06:38:31;;;;;;;;;10.25;10.25;;;;;2.94;70.07;101988.84;4917599;28;45800;-65
2022/02/12 06:40:57;;;;;;;;;9.75;9.00;;;;;2.96;69.09;101986.28;4921215;28;45299;-64
2022/02/12 06:43:23;;;;;;;;;9.00;9.00;;;;;2.92;69.27;101986.25;4921262;28;45235;-66
2022/02/12 06:45:49;;;;;;;;;15.75;11.00;;;;;2.88;70.14;101976.66;4920592;28;46691;-64
2022/02/12 06:48:14;;;;;;;;;11.75;10.00;;;;;2.72;69.54;101956.50;4918847;28;45528;-63
2022/02/12 06:50:39;;;;;;;;;14.50;10.75;;;;;2.91;70.68;101981.00;4918808;28;45228;-63
2022/02/12 06:53:05;;;;;;;;;19.00;12.25;;;;;2.90;69.73;101980.16;4919858;28;45545;-62
2022/02/12 06:55:31;;;;;;;;;16.75;10.75;;;;;2.85;70.34;101975.72;4921630;28;47045;-61
2022/02/12 06:57:56;;;;;;;;;15.50;11.25;;;;;2.88;70.29;101981.88;4921031;28;45464;-64
2022/02/12 07:00:22;;;;;;;;;11.25;10.00;;;;;2.70;70.57;101953.00;4920297;28;45428;-62
2022/02/12 07:02:47;;;;;;;;;12.50;8.75;;;;;2.82;70.30;101973.97;4919261;28;45511;-62
2022/02/12 07:05:13;;;;;;;;;15.00;10.25;;;;;2.85;70.76;101975.72;4918874;28;45963;-67
2022/02/12 07:07:46;;;;;;;;;14.25;11.00;;;;;2.84;70.77;101984.38;4918583;28;45398;-62
2022/02/12 07:10:13;;;;;;;;;16.75;14.00;;;;;2.81;70.68;101984.34;4918778;28;45438;-64
2022/02/12 07:12:38;;;;;;;;;14.50;12.25;;;;;2.80;70.43;101980.88;4918926;28;45537;-66
2022/02/12 07:15:05;;;;;;;;;14.00;10.75;;;;;2.76;70.43;101982.53;4918327;28;47032;-62
2022/02/12 07:17:30;;;;;;;;;13.00;11.50;;;;;2.77;70.25;101984.28;4920317;28;45413;-65
2022/02/12 07:19:55;;;;;;;;;12.25;12.00;;;;;2.80;70.06;101983.47;4923781;28;45331;-63
2022/02/12 07:22:26;;;;;;;;;15.00;13.00;;;;;2.78;69.96;101980.84;4923292;28;45312;-64
2022/02/12 07:24:52;;;;;;;;;17.00;12.50;;;;;2.77;70.54;101973.91;4922746;28;46449;-62
2022/02/12 07:27:17;;;;;;;;;15.50;14.00;;;;;2.83;71.21;101990.44;4923021;28;45396;-64
2022/02/12 07:29:42;;;;;;;;;14.75;12.50;;;;;2.86;70.62;101978.38;4927512;28;45258;-63
2022/02/12 07:32:08;;;;;;;;;59.25;48.00;;;;;2.85;70.72;101966.22;4923015;28;45548;-63
2022/02/12 07:34:33;;;;;;;;;18.75;15.50;;;;;2.88;69.96;101979.25;4917333;28;46923;-62
2022/02/12 07:36:58;;;;;;;;;22.00;18.00;;;;;2.89;70.01;101977.53;4916696;28;45390;-65
2022/02/12 07:39:25;;;;;;;;;17.50;16.00;;;;;2.89;71.28;101972.31;4926961;28;45397;-64
2022/02/12 07:41:50;;;;;;;;;17.50;15.75;;;;;2.93;71.20;101979.31;4923678;28;45314;-63
2022/02/12 07:44:16;;;;;;;;;14.50;12.25;;;;;2.93;70.28;101971.50;4920216;28;45478;-65
2022/02/12 07:46:41;;;;;;;;;22.75;14.75;;;;;2.91;70.48;101971.50;4917639;28;45529;-68
2022/02/12 07:49:06;;;;;;;;;8.75;7.50;;;;;2.95;70.21;101987.16;4921501;28;45210;-64
2022/02/12 07:51:32;;;;;;;;;19.50;13.50;;;;;2.94;70.55;101986.25;4924473;28;45220;-63
2022/02/12 07:53:58;;;;;;;;;15.00;12.25;;;;;2.95;70.42;101990.59;4924383;28;48598;-63
2022/02/12 07:56:24;;;;;;;;;23.00;17.00;;;;;2.97;70.21;101981.09;4927951;28;45262;-64
2022/02/12 07:58:49;;;;;;;;;16.00;15.50;;;;;2.99;70.27;101986.34;4933268;28;45248;-73
2022/02/12 08:01:15;;;;;;;;;17.25;11.25;;;;;2.94;70.08;101978.47;4929789;28;45444;-68
2022/02/12 08:03:41;;;;;;;;;20.00;18.25;;;;;2.93;69.53;101974.09;4922472;28;45855;-66
2022/02/12 08:07:27;;;;;;;;;17.25;13.25;;;;;2.89;70.64;101970.63;4925427;28;45561;-69
2022/02/12 08:08:52;;;;;;;;;19.50;13.50;;;;;3.00;70.59;101985.47;4926452;28;44844;-63
2022/02/12 08:11:23;;;;;;;;;18.50;18.50;;;;;3.02;70.40;101984.63;4928286;28;45629;-63
2022/02/12 08:13:50;;;;;;;;;16.75;15.25;;;;;3.01;70.12;101990.69;4929076;28;45300;-69
2022/02/12 08:16:17;;;;;;;;;18.25;15.50;;;;;2.91;69.86;101970.63;4926348;28;45200;-62
2022/02/12 08:18:42;;;;;;;;;17.75;14.75;;;;;3.10;69.70;101989.06;4922749;28;45441;-62
2022/02/12 08:21:08;;;;;;;;;20.50;15.25;;;;;3.09;68.91;101980.41;4922388;28;45593;-63
2022/02/12 08:23:33;;;;;;;;;16.00;15.00;;;;;3.15;69.10;101984.78;4921675;28;45972;-65
2022/02/12 08:25:58;;;;;;;;;16.50;15.50;;;;;3.17;69.58;101988.28;4921170;28;45422;-64
2022/02/12 08:28:24;;;;;;;;;18.75;14.00;;;;;3.19;69.26;101984.03;4921200;28;45439;-66
2022/02/12 08:30:49;;;;;;;;;22.50;18.00;;;;;3.19;68.91;101984.03;4923445;28;45402;-63
2022/02/12 08:33:14;;;;;;;;;18.75;16.75;;;;;3.24;69.28;101979.75;4922454;28;45605;-64
2022/02/12 08:35:40;;;;;;;;;17.50;16.75;;;;;3.01;69.92;101932.63;4926527;28;45362;-63
2022/02/12 08:38:06;;;;;;;;;13.50;11.00;;;;;3.29;69.16;101974.59;4925624;28;45420;-64
2022/02/12 08:40:32;;;;;;;;;20.00;16.25;;;;;3.31;68.91;101978.09;4920918;28;45546;-69
2022/02/12 08:42:58;;;;;;;;;15.00;12.25;;;;;3.33;68.84;101979.88;4920648;28;46827;-63
2022/02/12 08:45:24;;;;;;;;;26.75;21.50;;;;;3.30;68.62;101961.63;4921683;28;45326;-70
2022/02/12 08:47:50;;;;;;;;;24.50;17.50;;;;;3.39;67.75;101967.78;4921221;28;45245;-63
2022/02/12 08:50:15;;;;;;;;;19.00;14.75;;;;;3.41;68.76;101971.28;4921256;28;45289;-67
2022/02/12 08:52:42;;;;;;;;;19.50;18.50;;;;;3.41;67.53;101973.88;4920750;28;46226;-70
2022/02/12 08:55:09;;;;;;;;;21.75;17.75;;;;;3.43;68.69;101966.97;4920407;28;45502;-75
2022/02/12 08:57:34;;;;;;;;;22.75;17.00;;;;;3.47;68.51;101966.16;4920690;28;45469;-67
2022/02/12 08:59:59;;;;;;;;;12.00;9.25;;;;;3.50;67.62;101963.59;4920420;28;45936;-62
2022/02/12 09:02:25;;;;;;;;;17.75;15.75;;;;;3.51;68.51;101957.53;4920776;28;46035;-61
2022/02/12 09:04:50;;;;;;;;;28.50;19.25;;;;;3.52;68.14;101956.66;4918994;28;45379;-64
2022/02/12 09:07:16;;;;;;;;;20.50;17.75;;;;;3.56;67.61;101954.94;4922208;28;45309;-65
2022/02/12 09:09:42;;;;;;;;;19.50;19.00;;;;;3.57;67.12;101952.38;4920521;28;45502;-72
2022/02/12 09:12:11;;;;;;;;;22.00;18.75;;;;;3.62;68.45;101950.69;4925048;28;46165;-68
2022/02/12 09:14:36;;;;;;;;;19.00;16.50;;;;;3.63;67.85;101936.84;4923737;28;45157;-67
2022/02/12 09:17:02;;;;;;;;;19.25;16.25;;;;;3.71;67.66;101947.34;4923025;28;45389;-65
2022/02/12 09:19:27;;;;;;;;;24.75;19.00;;;;;3.75;67.53;101953.44;4920042;28;45452;-62
2022/02/12 09:21:53;;;;;;;;;22.75;18.25;;;;;3.77;67.21;101943.91;4919996;28;45463;-64
2022/02/12 09:24:18;;;;;;;;;26.00;17.50;;;;;3.83;66.37;101949.19;4920093;28;45503;-73
2022/02/12 09:26:43;;;;;;;;;20.50;15.25;;;;;3.90;66.86;101944.91;4920768;28;45491;-70
2022/02/12 09:29:09;;;;;;;;;22.75;17.50;;;;;3.91;66.51;101934.50;4922826;28;45457;-66
2022/02/12 09:31:35;;;;;;;;;63.50;47.25;;;;;3.69;66.80;101889.16;4923169;28;45980;-77
2022/02/12 09:34:00;;;;;;;;;17.75;14.75;;;;;4.04;66.63;101932.00;4924253;28;45623;-71
2022/02/12 09:36:26;;;;;;;;;21.50;19.50;;;;;4.11;66.50;101939.00;4923310;28;45276;-67
2022/02/12 09:38:52;;;;;;;;;29.00;24.75;;;;;3.82;66.35;101868.47;4923797;28;45569;-64
2022/02/12 09:41:23;;;;;;;;;23.25;18.00;;;;;4.21;65.34;101925.19;4922281;28;45697;-61
2022/02/12 09:43:50;;;;;;;;;24.00;17.00;;;;;4.27;65.91;101924.41;4920762;28;45402;-74
2022/02/12 09:46:27;;;;;;;;;23.75;21.75;;;;;4.35;65.46;101925.31;4920734;28;45277;-62
2022/02/12 09:48:54;;;;;;;;;22.25;16.00;;;;;4.41;64.33;101916.69;4918587;28;45354;-65
2022/02/12 09:51:22;;;;;;;;;29.75;26.25;;;;;4.43;64.02;101912.38;4919285;28;47142;-66
2022/02/12 09:53:48;;;;;;;;;14.50;13.50;;;;;4.50;63.95;101914.16;4920345;28;45366;-69
2022/02/12 09:56:13;;;;;;;;;15.75;14.00;;;;;4.54;63.70;101912.41;4922185;28;45410;-63
2022/02/12 09:58:38;;;;;;;;;18.25;14.25;;;;;4.61;63.92;101910.72;4922883;28;45393;-63
2022/02/12 10:01:04;;;;;;;;;17.00;12.50;;;;;4.66;63.38;101909.88;4922636;28;45445;-64
2022/02/12 10:03:29;;;;;;;;;21.00;12.75;;;;;4.69;63.10;101896.00;4923658;28;45374;-63
2022/02/12 10:05:55;;;;;;;;;13.00;13.00;;;;;4.78;62.53;101905.63;4920796;28;45352;-63
2022/02/12 10:08:22;;;;;;;;;14.75;13.50;;;;;4.80;62.08;101891.72;4921528;28;45439;-67
2022/02/12 10:10:50;;;;;;;;;14.50;11.50;;;;;4.83;62.09;101894.34;4919735;28;45557;-68
2022/02/12 10:13:19;;;;;;;;;14.75;14.00;;;;;4.91;61.89;101896.13;4920060;28;45447;-63
2022/02/12 10:15:45;;;;;;;;;15.50;13.25;;;;;4.98;62.32;101897.88;4921321;28;45533;-62
2022/02/12 10:18:12;;;;;;;;;15.25;15.00;;;;;5.08;61.31;101885.75;4922832;28;45517;-64
2022/02/12 10:20:39;;;;;;;;;21.75;14.25;;;;;5.16;60.69;101885.78;4919955;28;47460;-68
2022/02/12 10:23:08;;;;;;;;;17.00;13.00;;;;;5.22;60.90;101875.34;4920745;28;45290;-63
2022/02/12 10:25:34;;;;;;;;;14.50;11.75;;;;;5.30;60.52;101873.66;4920749;28;45390;-64
2022/02/12 10:28:00;;;;;;;;;15.25;12.75;;;;;5.37;60.15;101864.09;4919112;28;45620;-62
2022/02/12 10:30:26;;;;;;;;;10.25;8.25;;;;;5.43;59.19;101869.34;4919915;28;46075;-63
2022/02/12 10:33:00;;;;;;;;;11.50;8.25;;;;;5.50;59.48;101860.66;4919697;28;45291;-65
2022/02/12 10:35:26;;;;;;;;;14.50;10.75;;;;;5.56;57.82;101863.25;4919309;28;45316;-63
2022/02/12 10:37:58;;;;;;;;;10.75;9.25;;;;;5.61;58.29;101851.94;4919279;28;45335;-62
2022/02/12 10:40:24;;;;;;;;;9.00;8.50;;;;;5.73;57.64;101862.41;4919306;28;46053;-66
2022/02/12 10:42:51;;;;;;;;;14.50;9.00;;;;;5.78;56.63;101857.19;4918613;28;45404;-63
2022/02/12 10:45:18;;;;;;;;;9.00;8.00;;;;;5.84;57.07;101846.75;4921980;28;45290;-63
2022/02/12 10:47:44;;;;;;;;;13.00;9.50;;;;;5.89;56.04;101849.38;4921599;28;45214;-71
2022/02/12 10:50:10;;;;;;;;;8.00;8.00;;;;;5.89;55.58;101845.00;4924807;28;45304;-63
2022/02/12 10:52:56;;;;;;;;;14.00;10.50;;;;;5.93;56.07;101845.91;4924347;28;45310;-65
2022/02/12 10:55:36;;;;;;;;;10.50;9.50;;;;;5.97;56.22;101840.66;4920513;28;45358;-62
2022/02/12 10:58:11;;;;;;;;;14.50;14.00;;;;;6.05;56.22;101837.19;4920685;28;45263;-64
2022/02/12 11:00:39;;;;;;;;;15.25;11.50;;;;;6.16;56.97;101845.03;4921967;28;46470;-65
2022/02/12 11:03:09;;;;;;;;;19.75;16.00;;;;;6.24;56.42;101835.44;4921167;28;45303;-69
2022/02/12 11:05:36;;;;;;;;;15.50;12.50;;;;;6.32;56.60;101844.13;4921030;28;45436;-68
2022/02/12 11:08:08;;;;;;;;;11.50;10.00;;;;;6.38;56.02;101841.50;4918400;28;45506;-64
2022/02/12 11:10:36;;;;;;;;;14.00;9.50;;;;;6.42;55.76;101832.78;4920538;28;45487;-63
2022/02/12 11:13:06;;;;;;;;;12.75;10.25;;;;;6.54;54.79;101831.00;4920431;28;45361;-64
2022/02/12 11:15:32;;;;;;;;;13.00;10.25;;;;;6.59;55.49;101824.00;4918797;28;45472;-66
2022/02/12 11:18:00;;;;;;;;;7.25;6.50;;;;;6.64;55.01;101821.38;4923462;28;45332;-62
2022/02/12 11:20:27;;;;;;;;;14.25;12.25;;;;;6.66;54.45;101817.88;4920123;28;45355;-64